»·PEaware :: ASA119 KLAX-KSFO

ASA119 :: KLAX-KSFO

FLIGHT INFORMATION

Flight Status: Arrived
Operator:
Alaska Airlines
More flights by this operator :: More flights under this callsign
Pilot: Kevin M. (7)
Aircraft: BOEING 737-800
(B738)
More flights by this aircraft type
Origin: KLAX Los Angeles Intl
United States
Destination: KSFO San Francisco Intl
United States
More flights between these airports :: More routes between these airports
Route: SUMMR1 STOKD SERFR SERFR3
File this flight plan on PilotEdge
Remarks:
Altitude:
(Current/Filed)
36,000ft
Speed:
(Current/Filed)
468kts
Departed: 25-Aug-19 05:23 PM
Arrived: 25-Aug-19 06:12 PM
Distance/Time
Traveled:
293nm/0:49
Distance/Time
To Go:
Arrived

Flight Plot

Page will automatically refresh every two minutes.

Flight plan parsing failed; only flown route is shown


Map Options




Map Legend


Flown Route
Filed Route
Departure Airport
Arrival Airport
Navaid (VOR, NDB)
Fix

Horizontal Profiles

Position Reports

Time Latitude Longitude Heading Altitude Ground
Speed
25-Aug-19 17:00 33.940552 -118.401278 263 121ft 0kts
25-Aug-19 17:01 33.940552 -118.401278 263 121ft 0kts
25-Aug-19 17:02 33.940552 -118.401278 263 121ft 0kts
25-Aug-19 17:03 33.940552 -118.401278 263 121ft 0kts
25-Aug-19 17:04 33.940552 -118.401278 263 121ft 0kts
25-Aug-19 17:05 33.940552 -118.401278 263 121ft 0kts
25-Aug-19 17:06 33.940552 -118.401278 263 121ft 0kts
25-Aug-19 17:07 33.940552 -118.401278 263 121ft 0kts
25-Aug-19 17:08 33.940552 -118.401278 263 121ft 0kts
25-Aug-19 17:09 33.940552 -118.401278 263 121ft 0kts
25-Aug-19 17:10 33.940552 -118.401278 263 121ft 0kts
25-Aug-19 17:11 33.940566 -118.401124 264 120ft 2kts
25-Aug-19 17:12 33.940818 -118.400727 169 120ft 0kts
25-Aug-19 17:13 33.940859 -118.400737 170 120ft 0kts
25-Aug-19 17:14 33.939036 -118.400332 139 118ft 21kts
25-Aug-19 17:15 33.939794 -118.389880 83 106ft 33kts
25-Aug-19 17:16 33.940554 -118.382654 83 102ft 10kts
25-Aug-19 17:17 33.940654 -118.381657 82 101ft 0kts
25-Aug-19 17:18 33.940654 -118.381657 82 101ft 0kts
25-Aug-19 17:19 33.940763 -118.380274 118 99ft 0kts
25-Aug-19 17:20 33.939767 -118.380929 262 100ft 0kts
25-Aug-19 17:21 33.939719 -118.381333 261 100ft 21kts
25-Aug-19 17:22 33.935351 -118.428125 260 2282ft 190kts
25-Aug-19 17:23 33.927652 -118.507599 262 4869ft 277kts
25-Aug-19 17:24 33.919919 -118.603880 264 9033ft 308kts
25-Aug-19 17:25 33.916886 -118.706200 271 12370ft 331kts
25-Aug-19 17:26 33.916752 -118.825783 269 15781ft 366kts
25-Aug-19 17:27 33.919987 -118.951470 272 19111ft 391kts
25-Aug-19 17:28 33.958388 -119.086697 302 20449ft 466kts
25-Aug-19 17:29 34.035161 -119.207924 322 24503ft 459kts
25-Aug-19 17:30 34.141028 -119.299719 326 27244ft 478kts
25-Aug-19 17:31 34.251810 -119.395014 326 29732ft 498kts
25-Aug-19 17:32 34.365482 -119.493298 325 32585ft 502kts
25-Aug-19 17:33 34.470540 -119.603513 315 35450ft 498kts
25-Aug-19 17:34 34.565662 -119.721454 315 36002ft 476kts
25-Aug-19 17:35 34.659079 -119.837178 315 36002ft 479kts
25-Aug-19 17:36 34.752606 -119.953341 315 36007ft 480kts
25-Aug-19 17:37 34.845524 -120.069125 315 36016ft 480kts
25-Aug-19 17:38 34.938688 -120.185576 315 36035ft 475kts
25-Aug-19 17:39 35.029813 -120.299856 315 36046ft 467kts
25-Aug-19 17:40 35.121577 -120.411591 318 36039ft 466kts
25-Aug-19 17:41 35.217394 -120.518704 318 36019ft 466kts
25-Aug-19 17:42 35.312915 -120.625979 318 36019ft 466kts
25-Aug-19 17:43 35.408603 -120.733855 318 36009ft 466kts
25-Aug-19 17:44 35.505129 -120.839986 323 35990ft 466kts
25-Aug-19 17:45 35.608773 -120.935201 324 35981ft 466kts
25-Aug-19 17:46 35.712206 -121.031195 324 35981ft 466kts
25-Aug-19 17:47 35.815629 -121.127675 324 35981ft 466kts
25-Aug-19 17:48 35.919097 -121.224580 324 35978ft 460kts
25-Aug-19 17:49 36.021859 -121.321162 323 32156ft 495kts
25-Aug-19 17:50 36.133641 -121.417409 329 28744ft 475kts
25-Aug-19 17:51 36.244675 -121.502993 328 27737ft 474kts
25-Aug-19 17:52 36.356767 -121.590617 328 26741ft 477kts
25-Aug-19 17:53 36.467777 -121.677844 327 25395ft 444kts
25-Aug-19 17:54 36.565938 -121.755276 327 21968ft 405kts
25-Aug-19 17:55 36.655959 -121.826513 327 19335ft 358kts
25-Aug-19 17:56 36.735114 -121.888741 332 17568ft 325kts
25-Aug-19 17:57 36.821630 -121.917328 347 15884ft 320kts
25-Aug-19 17:58 36.907669 -121.941067 346 14263ft 314kts
25-Aug-19 17:59 36.998234 -121.970660 341 12324ft 350kts
25-Aug-19 18:00 37.088510 -122.005923 341 10628ft 325kts
25-Aug-19 18:01 37.169151 -122.037492 341 9777ft 290kts
25-Aug-19 18:02 37.244698 -122.067139 341 8499ft 280kts
25-Aug-19 18:03 37.319052 -122.096420 341 6340ft 294kts
25-Aug-19 18:04 37.391145 -122.124360 343 5998ft 263kts
25-Aug-19 18:05 37.461968 -122.148704 343 5021ft 260kts
25-Aug-19 18:06 37.523997 -122.175072 319 2914ft 220kts
25-Aug-19 18:07 37.558868 -122.230973 297 2022ft 199kts
25-Aug-19 18:08 37.579842 -122.282215 296 1263ft 131kts
25-Aug-19 18:09 37.596499 -122.322185 297 753ft 127kts
25-Aug-19 18:10 37.612872 -122.361211 297 18ft 121kts
25-Aug-19 18:11 37.619471 -122.379570 228 33ft 18kts
25-Aug-19 18:12 37.617609 -122.379619 257 33ft 4kts
25-Aug-19 18:13 37.617540 -122.380354 270 33ft 0kts
25-Aug-19 18:15 37.617540 -122.380354 270 33ft 0kts

Navigation Log

Ident Type
Flight plan parsing failed, navigation log unavailable